sensor_id;sensor_type;location;lat;lon;timestamp;temperature;humidity
44305;DHT22;30019;50.576;8.568;2023-08-24T00:02:02;17.80;99.90
44305;DHT22;30019;50.576;8.568;2023-08-24T00:04:28;17.70;99.90
44305;DHT22;30019;50.576;8.568;2023-08-24T00:06:54;17.60;99.90
44305;DHT22;30019;50.576;8.568;2023-08-24T00:09:20;17.60;99.90
44305;DHT22;30019;50.576;8.568;2023-08-24T00:11:46;17.60;99.90
44305;DHT22;30019;50.576;8.568;2023-08-24T00:14:12;17.60;99.90
44305;DHT22;30019;50.576;8.568;2023-08-24T00:16:38;17.50;99.90
44305;DHT22;30019;50.576;8.568;2023-08-24T00:19:04;17.50;99.90
44305;DHT22;30019;50.576;8.568;2023-08-24T00:21:30;17.50;99.90
44305;DHT22;30019;50.576;8.568;2023-08-24T00:23:56;17.50;99.90
44305;DHT22;30019;50.576;8.568;2023-08-24T00:26:21;17.40;99.90
44305;DHT22;30019;50.576;8.568;2023-08-24T00:28:47;17.50;99.90
44305;DHT22;30019;50.576;8.568;2023-08-24T00:31:15;17.50;99.90
44305;DHT22;30019;50.576;8.568;2023-08-24T00:33:40;17.50;99.90
44305;DHT22;30019;50.576;8.568;2023-08-24T00:36:06;17.30;99.90
44305;DHT22;30019;50.576;8.568;2023-08-24T00:38:32;17.30;99.90
44305;DHT22;30019;50.576;8.568;2023-08-24T00:40:58;17.30;99.90
44305;DHT22;30019;50.576;8.568;2023-08-24T00:43:25;17.20;99.90
44305;DHT22;30019;50.576;8.568;2023-08-24T00:45:51;17.10;99.90
44305;DHT22;30019;50.576;8.568;2023-08-24T00:48:21;17.10;99.90
44305;DHT22;30019;50.576;8.568;2023-08-24T00:50:52;17.10;99.90
44305;DHT22;30019;50.576;8.568;2023-08-24T00:53:19;17.10;99.90
44305;DHT22;30019;50.576;8.568;2023-08-24T00:55:45;17.10;99.90
44305;DHT22;30019;50.576;8.568;2023-08-24T00:58:11;17.10;99.90
44305;DHT22;30019;50.576;8.568;2023-08-24T01:00:38;17.00;99.90
44305;DHT22;30019;50.576;8.568;2023-08-24T01:03:03;16.90;99.90
44305;DHT22;30019;50.576;8.568;2023-08-24T01:05:29;16.80;99.90
44305;DHT22;30019;50.576;8.568;2023-08-24T01:07:55;16.80;99.90
44305;DHT22;30019;50.576;8.568;2023-08-24T01:10:21;16.70;99.90
44305;DHT22;30019;50.576;8.568;2023-08-24T01:13:06;16.70;99.90
44305;DHT22;30019;50.576;8.568;2023-08-24T01:18:14;16.80;99.90
44305;DHT22;30019;50.576;8.568;2023-08-24T01:20:42;16.80;99.90
44305;DHT22;30019;50.576;8.568;2023-08-24T01:23:19;16.70;99.90
44305;DHT22;30019;50.576;8.568;2023-08-24T01:25:52;16.80;99.90
44305;DHT22;30019;50.576;8.568;2023-08-24T01:28:19;16.60;99.90
44305;DHT22;30019;50.576;8.568;2023-08-24T01:30:46;16.50;99.90
44305;DHT22;30019;50.576;8.568;2023-08-24T01:33:13;16.40;99.90
44305;DHT22;30019;50.576;8.568;2023-08-24T01:35:39;16.30;99.90
44305;DHT22;30019;50.576;8.568;2023-08-24T01:38:05;16.40;99.90
44305;DHT22;30019;50.576;8.568;2023-08-24T01:40:39;16.40;99.90
44305;DHT22;30019;50.576;8.568;2023-08-24T01:43:07;16.30;99.90
44305;DHT22;30019;50.576;8.568;2023-08-24T01:45:35;16.30;99.90
44305;DHT22;30019;50.576;8.568;2023-08-24T01:48:02;16.30;99.90
44305;DHT22;30019;50.576;8.568;2023-08-24T01:50:32;16.30;99.90
44305;DHT22;30019;50.576;8.568;2023-08-24T01:52:58;16.20;99.90
44305;DHT22;30019;50.576;8.568;2023-08-24T01:55:24;16.20;99.90
44305;DHT22;30019;50.576;8.568;2023-08-24T01:57:49;16.20;99.90
44305;DHT22;30019;50.576;8.568;2023-08-24T02:00:15;16.20;99.90
44305;DHT22;30019;50.576;8.568;2023-08-24T02:02:44;16.20;99.90
44305;DHT22;30019;50.576;8.568;2023-08-24T02:05:10;16.30;99.90
44305;DHT22;30019;50.576;8.568;2023-08-24T02:07:36;16.30;99.90
44305;DHT22;30019;50.576;8.568;2023-08-24T02:10:02;16.30;99.90
44305;DHT22;30019;50.576;8.568;2023-08-24T02:12:27;16.30;99.90
44305;DHT22;30019;50.576;8.568;2023-08-24T02:14:53;16.20;99.90
44305;DHT22;30019;50.576;8.568;2023-08-24T02:17:19;16.20;99.90
44305;DHT22;30019;50.576;8.568;2023-08-24T02:19:44;16.10;99.90
44305;DHT22;30019;50.576;8.568;2023-08-24T02:22:10;16.10;99.90
44305;DHT22;30019;50.576;8.568;2023-08-24T02:24:35;16.00;99.90
44305;DHT22;30019;50.576;8.568;2023-08-24T02:27:01;15.90;99.90
44305;DHT22;30019;50.576;8.568;2023-08-24T02:29:26;15.90;99.90
44305;DHT22;30019;50.576;8.568;2023-08-24T02:31:53;15.90;99.90
44305;DHT22;30019;50.576;8.568;2023-08-24T02:34:18;15.80;99.90
44305;DHT22;30019;50.576;8.568;2023-08-24T02:36:44;15.80;99.90
44305;DHT22;30019;50.576;8.568;2023-08-24T02:39:10;15.70;99.90
44305;DHT22;30019;50.576;8.568;2023-08-24T02:41:36;15.80;99.90
44305;DHT22;30019;50.576;8.568;2023-08-24T02:44:02;15.80;99.90
44305;DHT22;30019;50.576;8.568;2023-08-24T02:46:28;15.80;99.90
44305;DHT22;30019;50.576;8.568;2023-08-24T02:48:53;15.80;99.90
44305;DHT22;30019;50.576;8.568;2023-08-24T02:51:22;15.80;99.90
44305;DHT22;30019;50.576;8.568;2023-08-24T02:53:48;15.80;99.90
44305;DHT22;30019;50.576;8.568;2023-08-24T02:56:13;15.80;99.90
44305;DHT22;30019;50.576;8.568;2023-08-24T02:58:39;15.80;99.90
44305;DHT22;30019;50.576;8.568;2023-08-24T03:01:06;15.80;99.90
44305;DHT22;30019;50.576;8.568;2023-08-24T03:03:36;15.80;99.90
44305;DHT22;30019;50.576;8.568;2023-08-24T03:06:06;15.70;99.90
44305;DHT22;30019;50.576;8.568;2023-08-24T03:08:33;15.80;99.90
44305;DHT22;30019;50.576;8.568;2023-08-24T03:10:59;15.80;99.90
44305;DHT22;30019;50.576;8.568;2023-08-24T03:13:26;15.80;99.90
44305;DHT22;30019;50.576;8.568;2023-08-24T03:15:52;15.90;99.90
44305;DHT22;30019;50.576;8.568;2023-08-24T03:18:18;15.90;99.90
44305;DHT22;30019;50.576;8.568;2023-08-24T03:20:45;16.00;99.90
44305;DHT22;30019;50.576;8.568;2023-08-24T03:23:11;16.00;99.90
44305;DHT22;30019;50.576;8.568;2023-08-24T03:25:38;16.00;99.90
44305;DHT22;30019;50.576;8.568;2023-08-24T03:28:05;16.10;99.90
44305;DHT22;30019;50.576;8.568;2023-08-24T03:30:31;16.10;99.90
44305;DHT22;30019;50.576;8.568;2023-08-24T03:32:57;16.20;99.90
44305;DHT22;30019;50.576;8.568;2023-08-24T03:35:24;16.20;99.90
44305;DHT22;30019;50.576;8.568;2023-08-24T03:37:51;16.20;99.90
44305;DHT22;30019;50.576;8.568;2023-08-24T03:40:16;16.20;99.90
44305;DHT22;30019;50.576;8.568;2023-08-24T03:42:42;16.30;99.90
44305;DHT22;30019;50.576;8.568;2023-08-24T03:45:08;16.30;99.90
44305;DHT22;30019;50.576;8.568;2023-08-24T03:47:33;16.30;99.90
44305;DHT22;30019;50.576;8.568;2023-08-24T03:49:59;16.40;99.90
44305;DHT22;30019;50.576;8.568;2023-08-24T03:52:25;16.40;99.90
44305;DHT22;30019;50.576;8.568;2023-08-24T03:54:50;16.40;99.90
44305;DHT22;30019;50.576;8.568;2023-08-24T03:57:16;16.40;99.90
44305;DHT22;30019;50.576;8.568;2023-08-24T03:59:42;16.40;99.90
44305;DHT22;30019;50.576;8.568;2023-08-24T04:02:07;16.40;99.90
44305;DHT22;30019;50.576;8.568;2023-08-24T04:04:33;16.40;99.90
44305;DHT22;30019;50.576;8.568;2023-08-24T04:06:58;16.30;99.90
44305;DHT22;30019;50.576;8.568;2023-08-24T04:09:25;16.30;99.90
44305;DHT22;30019;50.576;8.568;2023-08-24T04:11:51;16.30;99.90
44305;DHT22;30019;50.576;8.568;2023-08-24T04:14:16;16.30;99.90
44305;DHT22;30019;50.576;8.568;2023-08-24T04:16:42;16.30;99.90
44305;DHT22;30019;50.576;8.568;2023-08-24T04:19:08;16.30;99.90
44305;DHT22;30019;50.576;8.568;2023-08-24T04:21:34;16.30;99.90
44305;DHT22;30019;50.576;8.568;2023-08-24T04:23:59;16.30;99.90
44305;DHT22;30019;50.576;8.568;2023-08-24T04:26:25;16.40;99.90
44305;DHT22;30019;50.576;8.568;2023-08-24T04:28:50;16.40;99.90
44305;DHT22;30019;50.576;8.568;2023-08-24T04:31:16;16.30;99.90
44305;DHT22;30019;50.576;8.568;2023-08-24T04:33:42;16.30;99.90
44305;DHT22;30019;50.576;8.568;2023-08-24T04:36:07;16.30;99.90
44305;DHT22;30019;50.576;8.568;2023-08-24T04:38:33;16.30;99.90
44305;DHT22;30019;50.576;8.568;2023-08-24T04:40:59;16.30;99.90
44305;DHT22;30019;50.576;8.568;2023-08-24T04:43:24;16.30;99.90
44305;DHT22;30019;50.576;8.568;2023-08-24T04:45:52;16.40;99.90
44305;DHT22;30019;50.576;8.568;2023-08-24T04:48:18;16.40;99.90
44305;DHT22;30019;50.576;8.568;2023-08-24T04:50:44;16.40;99.90
44305;DHT22;30019;50.576;8.568;2023-08-24T04:53:13;16.50;99.90
44305;DHT22;30019;50.576;8.568;2023-08-24T04:55:40;16.30;99.90
44305;DHT22;30019;50.576;8.568;2023-08-24T04:58:06;16.40;99.90
44305;DHT22;30019;50.576;8.568;2023-08-24T05:00:32;16.40;99.90
44305;DHT22;30019;50.576;8.568;2023-08-24T05:02:59;16.50;99.90
44305;DHT22;30019;50.576;8.568;2023-08-24T05:05:24;16.30;99.90
44305;DHT22;30019;50.576;8.568;2023-08-24T05:07:50;16.30;99.90
44305;DHT22;30019;50.576;8.568;2023-08-24T05:10:15;16.20;99.90
44305;DHT22;30019;50.576;8.568;2023-08-24T05:12:41;16.20;99.90
44305;DHT22;30019;50.576;8.568;2023-08-24T05:15:07;16.10;99.90
44305;DHT22;30019;50.576;8.568;2023-08-24T05:17:33;16.10;99.90
44305;DHT22;30019;50.576;8.568;2023-08-24T05:19:59;16.10;99.90
44305;DHT22;30019;50.576;8.568;2023-08-24T05:22:24;16.10;99.90
44305;DHT22;30019;50.576;8.568;2023-08-24T05:24:50;16.10;99.90
44305;DHT22;30019;50.576;8.568;2023-08-24T05:27:15;16.20;99.90
44305;DHT22;30019;50.576;8.568;2023-08-24T05:29:42;16.30;99.90
44305;DHT22;30019;50.576;8.568;2023-08-24T05:32:08;16.30;99.90
44305;DHT22;30019;50.576;8.568;2023-08-24T05:34:34;16.40;99.90
44305;DHT22;30019;50.576;8.568;2023-08-24T05:37:00;16.40;99.90
44305;DHT22;30019;50.576;8.568;2023-08-24T05:39:25;16.50;99.90
44305;DHT22;30019;50.576;8.568;2023-08-24T05:41:52;16.50;99.90
44305;DHT22;30019;50.576;8.568;2023-08-24T05:44:19;16.60;99.90
44305;DHT22;30019;50.576;8.568;2023-08-24T05:46:46;16.70;99.90
44305;DHT22;30019;50.576;8.568;2023-08-24T05:49:11;16.80;99.90
44305;DHT22;30019;50.576;8.568;2023-08-24T05:51:37;16.90;99.90
44305;DHT22;30019;50.576;8.568;2023-08-24T05:54:03;17.00;99.90
44305;DHT22;30019;50.576;8.568;2023-08-24T05:56:28;17.00;99.90
44305;DHT22;30019;50.576;8.568;2023-08-24T05:58:54;17.10;99.90
44305;DHT22;30019;50.576;8.568;2023-08-24T06:01:19;17.20;99.90
44305;DHT22;30019;50.576;8.568;2023-08-24T06:03:45;17.20;99.90
44305;DHT22;30019;50.576;8.568;2023-08-24T06:06:10;17.30;99.90
44305;DHT22;30019;50.576;8.568;2023-08-24T06:08:36;17.40;99.90
44305;DHT22;30019;50.576;8.568;2023-08-24T06:11:01;17.40;99.90
44305;DHT22;30019;50.576;8.568;2023-08-24T06:13:27;17.40;99.90
44305;DHT22;30019;50.576;8.568;2023-08-24T06:15:53;17.40;99.90
44305;DHT22;30019;50.576;8.568;2023-08-24T06:18:19;17.30;99.90
44305;DHT22;30019;50.576;8.568;2023-08-24T06:20:45;17.40;99.90
44305;DHT22;30019;50.576;8.568;2023-08-24T06:23:12;17.40;99.90
44305;DHT22;30019;50.576;8.568;2023-08-24T06:25:38;17.40;99.90
44305;DHT22;30019;50.576;8.568;2023-08-24T06:28:04;17.20;99.90
44305;DHT22;30019;50.576;8.568;2023-08-24T06:30:30;17.10;99.90
44305;DHT22;30019;50.576;8.568;2023-08-24T06:33:03;17.00;99.90
44305;DHT22;30019;50.576;8.568;2023-08-24T06:35:29;17.10;99.90
44305;DHT22;30019;50.576;8.568;2023-08-24T06:37:54;17.10;99.90
44305;DHT22;30019;50.576;8.568;2023-08-24T06:40:20;17.20;99.90
44305;DHT22;30019;50.576;8.568;2023-08-24T06:42:45;17.30;99.90
44305;DHT22;30019;50.576;8.568;2023-08-24T06:45:11;17.30;99.90
44305;DHT22;30019;50.576;8.568;2023-08-24T06:47:36;17.30;99.90
44305;DHT22;30019;50.576;8.568;2023-08-24T06:50:02;17.40;99.90
44305;DHT22;30019;50.576;8.568;2023-08-24T06:52:27;17.40;99.90
44305;DHT22;30019;50.576;8.568;2023-08-24T06:54:53;17.50;99.90
44305;DHT22;30019;50.576;8.568;2023-08-24T06:57:21;17.50;99.90
44305;DHT22;30019;50.576;8.568;2023-08-24T06:59:47;17.60;99.90
44305;DHT22;30019;50.576;8.568;2023-08-24T07:02:12;17.70;99.90
44305;DHT22;30019;50.576;8.568;2023-08-24T07:04:38;17.70;99.90
44305;DHT22;30019;50.576;8.568;2023-08-24T07:07:06;17.80;99.90
44305;DHT22;30019;50.576;8.568;2023-08-24T07:09:32;17.80;99.90
44305;DHT22;30019;50.576;8.568;2023-08-24T07:11:57;17.80;99.90
44305;DHT22;30019;50.576;8.568;2023-08-24T07:14:23;17.90;99.90
44305;DHT22;30019;50.576;8.568;2023-08-24T07:16:49;17.90;99.90
44305;DHT22;30019;50.576;8.568;2023-08-24T07:19:14;17.90;99.90
44305;DHT22;30019;50.576;8.568;2023-08-24T07:21:40;18.00;99.90
44305;DHT22;30019;50.576;8.568;2023-08-24T07:24:06;18.10;99.90
44305;DHT22;30019;50.576;8.568;2023-08-24T07:26:32;18.20;99.90
44305;DHT22;30019;50.576;8.568;2023-08-24T07:28:57;18.40;99.90
44305;DHT22;30019;50.576;8.568;2023-08-24T07:31:23;18.50;99.90
44305;DHT22;30019;50.576;8.568;2023-08-24T07:33:49;18.70;99.90
44305;DHT22;30019;50.576;8.568;2023-08-24T07:36:14;18.80;99.90
44305;DHT22;30019;50.576;8.568;2023-08-24T07:38:40;18.90;99.90
44305;DHT22;30019;50.576;8.568;2023-08-24T07:41:06;19.10;99.90
44305;DHT22;30019;50.576;8.568;2023-08-24T07:43:32;19.30;99.90
44305;DHT22;30019;50.576;8.568;2023-08-24T07:45:58;19.50;99.90
44305;DHT22;30019;50.576;8.568;2023-08-24T07:48:23;19.70;99.90
44305;DHT22;30019;50.576;8.568;2023-08-24T07:50:49;19.80;99.90
44305;DHT22;30019;50.576;8.568;2023-08-24T07:53:14;20.00;99.90
44305;DHT22;30019;50.576;8.568;2023-08-24T07:55:40;20.10;99.90
44305;DHT22;30019;50.576;8.568;2023-08-24T07:58:06;20.10;99.90
44305;DHT22;30019;50.576;8.568;2023-08-24T08:00:31;20.20;99.90
44305;DHT22;30019;50.576;8.568;2023-08-24T08:02:57;20.20;99.90
44305;DHT22;30019;50.576;8.568;2023-08-24T08:05:23;20.30;99.90
44305;DHT22;30019;50.576;8.568;2023-08-24T08:07:49;20.40;99.90
44305;DHT22;30019;50.576;8.568;2023-08-24T08:10:14;20.60;99.90
44305;DHT22;30019;50.576;8.568;2023-08-24T08:12:42;20.70;99.90
44305;DHT22;30019;50.576;8.568;2023-08-24T08:15:08;20.60;99.90
44305;DHT22;30019;50.576;8.568;2023-08-24T08:17:33;20.60;99.90
44305;DHT22;30019;50.576;8.568;2023-08-24T08:19:59;20.60;99.90
44305;DHT22;30019;50.576;8.568;2023-08-24T08:22:24;20.70;99.90
44305;DHT22;30019;50.576;8.568;2023-08-24T08:24:51;20.80;99.90
44305;DHT22;30019;50.576;8.568;2023-08-24T08:27:19;21.40;99.90
44305;DHT22;30019;50.576;8.568;2023-08-24T08:29:44;22.20;99.90
44305;DHT22;30019;50.576;8.568;2023-08-24T08:32:11;23.40;99.90
44305;DHT22;30019;50.576;8.568;2023-08-24T08:34:37;24.60;99.90
44305;DHT22;30019;50.576;8.568;2023-08-24T08:37:03;25.00;99.90
44305;DHT22;30019;50.576;8.568;2023-08-24T08:39:29;25.00;99.90
44305;DHT22;30019;50.576;8.568;2023-08-24T08:41:54;25.60;99.90
44305;DHT22;30019;50.576;8.568;2023-08-24T08:44:22;26.50;99.90
44305;DHT22;30019;50.576;8.568;2023-08-24T08:46:49;27.10;99.90
44305;DHT22;30019;50.576;8.568;2023-08-24T08:49:16;27.90;99.90
44305;DHT22;30019;50.576;8.568;2023-08-24T08:51:43;28.70;99.90
44305;DHT22;30019;50.576;8.568;2023-08-24T08:54:09;29.00;99.90
44305;DHT22;30019;50.576;8.568;2023-08-24T08:56:35;28.30;99.30
44305;DHT22;30019;50.576;8.568;2023-08-24T08:59:00;27.30;99.90
44305;DHT22;30019;50.576;8.568;2023-08-24T09:01:27;26.90;99.90
44305;DHT22;30019;50.576;8.568;2023-08-24T09:03:53;26.30;99.90
44305;DHT22;30019;50.576;8.568;2023-08-24T09:06:18;26.40;99.90
44305;DHT22;30019;50.576;8.568;2023-08-24T09:08:44;26.90;99.90
44305;DHT22;30019;50.576;8.568;2023-08-24T09:11:10;27.40;99.90
44305;DHT22;30019;50.576;8.568;2023-08-24T09:16:07;28.10;99.90
44305;DHT22;30019;50.576;8.568;2023-08-24T09:18:39;27.90;99.90
44305;DHT22;30019;50.576;8.568;2023-08-24T09:21:09;27.90;99.90
44305;DHT22;30019;50.576;8.568;2023-08-24T09:23:35;27.40;99.90
44305;DHT22;30019;50.576;8.568;2023-08-24T09:26:00;27.00;99.90
44305;DHT22;30019;50.576;8.568;2023-08-24T09:28:26;27.00;99.90
44305;DHT22;30019;50.576;8.568;2023-08-24T09:30:52;26.60;99.90
44305;DHT22;30019;50.576;8.568;2023-08-24T09:33:17;26.40;99.90
44305;DHT22;30019;50.576;8.568;2023-08-24T09:35:43;26.20;99.90
44305;DHT22;30019;50.576;8.568;2023-08-24T09:40:44;26.40;99.90
44305;DHT22;30019;50.576;8.568;2023-08-24T09:43:12;26.60;99.90
44305;DHT22;30019;50.576;8.568;2023-08-24T09:45:37;26.80;99.90
44305;DHT22;30019;50.576;8.568;2023-08-24T09:48:03;26.80;99.90
44305;DHT22;30019;50.576;8.568;2023-08-24T09:50:31;26.60;99.90
44305;DHT22;30019;50.576;8.568;2023-08-24T09:52:57;26.90;99.90
44305;DHT22;30019;50.576;8.568;2023-08-24T09:55:24;27.00;99.90
44305;DHT22;30019;50.576;8.568;2023-08-24T09:57:53;26.90;99.90
44305;DHT22;30019;50.576;8.568;2023-08-24T10:00:20;27.20;99.90
44305;DHT22;30019;50.576;8.568;2023-08-24T10:05:13;27.30;99.90
44305;DHT22;30019;50.576;8.568;2023-08-24T10:07:55;27.80;99.90
44305;DHT22;30019;50.576;8.568;2023-08-24T10:10:21;29.00;97.80
44305;DHT22;30019;50.576;8.568;2023-08-24T10:12:51;29.40;96.60
44305;DHT22;30019;50.576;8.568;2023-08-24T10:15:17;29.60;96.00
44305;DHT22;30019;50.576;8.568;2023-08-24T10:17:43;30.00;95.60
44305;DHT22;30019;50.576;8.568;2023-08-24T10:20:10;30.00;93.90
44305;DHT22;30019;50.576;8.568;2023-08-24T10:22:35;30.60;92.70
44305;DHT22;30019;50.576;8.568;2023-08-24T10:25:04;30.90;90.80
44305;DHT22;30019;50.576;8.568;2023-08-24T10:27:30;31.30;90.40
44305;DHT22;30019;50.576;8.568;2023-08-24T10:29:57;31.20;91.30
44305;DHT22;30019;50.576;8.568;2023-08-24T10:32:25;30.80;90.00
44305;DHT22;30019;50.576;8.568;2023-08-24T10:34:52;31.00;88.10
44305;DHT22;30019;50.576;8.568;2023-08-24T10:37:25;31.30;87.50
44305;DHT22;30019;50.576;8.568;2023-08-24T10:39:50;31.10;87.40
44305;DHT22;30019;50.576;8.568;2023-08-24T10:42:16;31.30;84.50
44305;DHT22;30019;50.576;8.568;2023-08-24T10:44:46;31.10;83.60
44305;DHT22;30019;50.576;8.568;2023-08-24T10:47:12;30.70;83.10
44305;DHT22;30019;50.576;8.568;2023-08-24T10:49:41;30.90;84.60
44305;DHT22;30019;50.576;8.568;2023-08-24T10:52:20;30.60;85.60
44305;DHT22;30019;50.576;8.568;2023-08-24T10:54:50;30.10;82.80
44305;DHT22;30019;50.576;8.568;2023-08-24T10:57:27;29.70;84.30
44305;DHT22;30019;50.576;8.568;2023-08-24T11:02:25;29.60;87.40
44305;DHT22;30019;50.576;8.568;2023-08-24T11:05:19;29.10;88.70
44305;DHT22;30019;50.576;8.568;2023-08-24T11:07:56;28.90;90.10
44305;DHT22;30019;50.576;8.568;2023-08-24T11:10:22;28.60;89.50
44305;DHT22;30019;50.576;8.568;2023-08-24T11:15:33;29.10;90.70
44305;DHT22;30019;50.576;8.568;2023-08-24T11:20:48;29.00;90.30
44305;DHT22;30019;50.576;8.568;2023-08-24T11:23:19;29.00;91.20
44305;DHT22;30019;50.576;8.568;2023-08-24T11:25:48;28.90;92.00
44305;DHT22;30019;50.576;8.568;2023-08-24T11:28:20;29.10;92.30
44305;DHT22;30019;50.576;8.568;2023-08-24T11:30:46;29.10;91.60
44305;DHT22;30019;50.576;8.568;2023-08-24T11:33:11;29.00;90.60
44305;DHT22;30019;50.576;8.568;2023-08-24T11:35:40;28.80;92.10
44305;DHT22;30019;50.576;8.568;2023-08-24T11:38:07;28.60;92.80
44305;DHT22;30019;50.576;8.568;2023-08-24T11:40:32;28.70;92.20
44305;DHT22;30019;50.576;8.568;2023-08-24T11:42:58;28.80;92.00
44305;DHT22;30019;50.576;8.568;2023-08-24T11:45:24;29.00;92.50
44305;DHT22;30019;50.576;8.568;2023-08-24T11:47:54;29.30;90.70
44305;DHT22;30019;50.576;8.568;2023-08-24T11:50:19;30.00;91.60
44305;DHT22;30019;50.576;8.568;2023-08-24T11:52:45;30.40;90.60
44305;DHT22;30019;50.576;8.568;2023-08-24T11:55:11;30.90;90.30
44305;DHT22;30019;50.576;8.568;2023-08-24T11:57:37;31.00;88.00
44305;DHT22;30019;50.576;8.568;2023-08-24T12:00:03;30.70;88.30
44305;DHT22;30019;50.576;8.568;2023-08-24T12:02:29;30.20;90.50
44305;DHT22;30019;50.576;8.568;2023-08-24T12:04:55;30.00;89.30
44305;DHT22;30019;50.576;8.568;2023-08-24T12:07:20;30.10;88.40
44305;DHT22;30019;50.576;8.568;2023-08-24T12:09:46;30.70;90.40
44305;DHT22;30019;50.576;8.568;2023-08-24T12:12:12;30.80;86.90
44305;DHT22;30019;50.576;8.568;2023-08-24T12:14:42;31.10;86.10
44305;DHT22;30019;50.576;8.568;2023-08-24T12:17:07;31.50;88.80
44305;DHT22;30019;50.576;8.568;2023-08-24T12:19:34;31.40;86.30
44305;DHT22;30019;50.576;8.568;2023-08-24T12:21:59;31.20;83.80
44305;DHT22;30019;50.576;8.568;2023-08-24T12:24:25;31.40;85.70
44305;DHT22;30019;50.576;8.568;2023-08-24T12:26:56;32.00;89.20
44305;DHT22;30019;50.576;8.568;2023-08-24T12:29:23;31.90;82.70
44305;DHT22;30019;50.576;8.568;2023-08-24T12:31:48;31.60;81.90
44305;DHT22;30019;50.576;8.568;2023-08-24T12:34:14;31.60;89.10
44305;DHT22;30019;50.576;8.568;2023-08-24T12:36:41;31.50;87.60
44305;DHT22;30019;50.576;8.568;2023-08-24T12:39:07;31.30;86.10
44305;DHT22;30019;50.576;8.568;2023-08-24T12:41:33;30.70;83.80
44305;DHT22;30019;50.576;8.568;2023-08-24T12:43:59;30.60;86.80
44305;DHT22;30019;50.576;8.568;2023-08-24T12:46:24;30.60;90.30
44305;DHT22;30019;50.576;8.568;2023-08-24T12:48:50;30.30;87.70
44305;DHT22;30019;50.576;8.568;2023-08-24T12:51:16;30.40;87.00
44305;DHT22;30019;50.576;8.568;2023-08-24T12:53:42;30.50;89.60
44305;DHT22;30019;50.576;8.568;2023-08-24T12:56:07;30.90;89.10
44305;DHT22;30019;50.576;8.568;2023-08-24T12:58:33;31.30;91.00
44305;DHT22;30019;50.576;8.568;2023-08-24T13:00:59;31.70;86.30
44305;DHT22;30019;50.576;8.568;2023-08-24T13:03:24;31.80;89.60
44305;DHT22;30019;50.576;8.568;2023-08-24T13:05:50;32.10;85.50
44305;DHT22;30019;50.576;8.568;2023-08-24T13:08:15;31.90;86.10
44305;DHT22;30019;50.576;8.568;2023-08-24T13:10:41;31.60;86.30
44305;DHT22;30019;50.576;8.568;2023-08-24T13:13:07;31.30;87.90
44305;DHT22;30019;50.576;8.568;2023-08-24T13:15:33;30.50;84.60
44305;DHT22;30019;50.576;8.568;2023-08-24T13:17:58;30.30;90.60
44305;DHT22;30019;50.576;8.568;2023-08-24T13:20:24;30.00;88.10
44305;DHT22;30019;50.576;8.568;2023-08-24T13:22:51;29.70;91.90
44305;DHT22;30019;50.576;8.568;2023-08-24T13:25:16;29.40;89.60
44305;DHT22;30019;50.576;8.568;2023-08-24T13:27:42;29.00;87.10
44305;DHT22;30019;50.576;8.568;2023-08-24T13:30:07;28.80;87.20
44305;DHT22;30019;50.576;8.568;2023-08-24T13:32:33;28.60;90.60
44305;DHT22;30019;50.576;8.568;2023-08-24T13:35:00;28.60;88.40
44305;DHT22;30019;50.576;8.568;2023-08-24T13:37:25;28.50;88.70
44305;DHT22;30019;50.576;8.568;2023-08-24T13:39:51;28.60;90.90
44305;DHT22;30019;50.576;8.568;2023-08-24T13:42:16;28.60;92.20
44305;DHT22;30019;50.576;8.568;2023-08-24T13:44:42;28.40;90.00
44305;DHT22;30019;50.576;8.568;2023-08-24T13:47:08;28.30;90.50
44305;DHT22;30019;50.576;8.568;2023-08-24T13:49:33;28.30;94.30
44305;DHT22;30019;50.576;8.568;2023-08-24T13:51:59;28.10;95.20
44305;DHT22;30019;50.576;8.568;2023-08-24T13:54:24;28.00;95.30
44305;DHT22;30019;50.576;8.568;2023-08-24T13:56:51;27.90;94.60
44305;DHT22;30019;50.576;8.568;2023-08-24T13:59:19;27.80;94.40
44305;DHT22;30019;50.576;8.568;2023-08-24T14:01:44;27.80;95.50
44305;DHT22;30019;50.576;8.568;2023-08-24T14:04:10;27.70;96.20
44305;DHT22;30019;50.576;8.568;2023-08-24T14:06:36;27.70;96.60
44305;DHT22;30019;50.576;8.568;2023-08-24T14:09:04;27.60;98.50
44305;DHT22;30019;50.576;8.568;2023-08-24T14:11:30;27.50;99.90
44305;DHT22;30019;50.576;8.568;2023-08-24T14:16:22;27.30;99.90
44305;DHT22;30019;50.576;8.568;2023-08-24T14:18:48;27.30;99.90
44305;DHT22;30019;50.576;8.568;2023-08-24T14:21:13;27.30;99.90
44305;DHT22;30019;50.576;8.568;2023-08-24T14:23:40;27.20;99.90
44305;DHT22;30019;50.576;8.568;2023-08-24T14:26:05;27.20;99.80
44305;DHT22;30019;50.576;8.568;2023-08-24T14:28:47;27.20;99.90
44305;DHT22;30019;50.576;8.568;2023-08-24T14:31:12;27.20;99.90
44305;DHT22;30019;50.576;8.568;2023-08-24T14:33:38;27.20;99.90
44305;DHT22;30019;50.576;8.568;2023-08-24T14:36:03;27.10;99.90
44305;DHT22;30019;50.576;8.568;2023-08-24T14:38:29;27.20;99.90
44305;DHT22;30019;50.576;8.568;2023-08-24T14:40:54;27.10;99.90
44305;DHT22;30019;50.576;8.568;2023-08-24T14:43:20;27.00;99.90
44305;DHT22;30019;50.576;8.568;2023-08-24T14:45:45;27.00;99.90
44305;DHT22;30019;50.576;8.568;2023-08-24T14:48:10;27.00;99.90
44305;DHT22;30019;50.576;8.568;2023-08-24T14:50:39;27.00;99.90
44305;DHT22;30019;50.576;8.568;2023-08-24T14:53:04;27.00;99.90
44305;DHT22;30019;50.576;8.568;2023-08-24T14:55:30;27.10;99.90
44305;DHT22;30019;50.576;8.568;2023-08-24T14:57:55;27.20;99.90
44305;DHT22;30019;50.576;8.568;2023-08-24T15:00:23;26.90;99.90
44305;DHT22;30019;50.576;8.568;2023-08-24T15:02:48;26.80;99.90
44305;DHT22;30019;50.576;8.568;2023-08-24T15:05:14;26.80;99.90
44305;DHT22;30019;50.576;8.568;2023-08-24T15:07:39;26.70;99.90
44305;DHT22;30019;50.576;8.568;2023-08-24T15:10:05;26.60;99.90
44305;DHT22;30019;50.576;8.568;2023-08-24T15:12:30;26.40;99.90
44305;DHT22;30019;50.576;8.568;2023-08-24T15:14:58;26.30;99.90
44305;DHT22;30019;50.576;8.568;2023-08-24T15:17:24;26.10;99.90
44305;DHT22;30019;50.576;8.568;2023-08-24T15:19:50;26.00;99.90
44305;DHT22;30019;50.576;8.568;2023-08-24T15:22:15;25.90;99.90
44305;DHT22;30019;50.576;8.568;2023-08-24T15:24:41;25.90;99.90
44305;DHT22;30019;50.576;8.568;2023-08-24T15:27:07;25.80;99.00
44305;DHT22;30019;50.576;8.568;2023-08-24T15:29:33;25.90;99.90
44305;DHT22;30019;50.576;8.568;2023-08-24T15:31:59;26.00;99.90
44305;DHT22;30019;50.576;8.568;2023-08-24T15:34:25;26.20;99.90
44305;DHT22;30019;50.576;8.568;2023-08-24T15:36:50;26.30;97.50
44305;DHT22;30019;50.576;8.568;2023-08-24T15:39:18;26.30;97.70
44305;DHT22;30019;50.576;8.568;2023-08-24T15:41:43;26.30;96.70
44305;DHT22;30019;50.576;8.568;2023-08-24T15:44:09;26.20;99.40
44305;DHT22;30019;50.576;8.568;2023-08-24T15:46:35;26.20;98.80